createdAt,value
2023-05-21T00:00:32.659Z,18.93
2023-05-21T00:01:34.418Z,18.95
2023-05-21T00:02:36.363Z,18.91
2023-05-21T00:03:41.930Z,18.92
2023-05-21T00:04:47.851Z,18.92
2023-05-21T00:05:50.408Z,18.89
2023-05-21T00:06:52.317Z,18.90
2023-05-21T00:07:55.195Z,18.89
2023-05-21T00:08:57.060Z,18.86
2023-05-21T00:09:58.967Z,18.89
2023-05-21T00:11:00.801Z,18.90
2023-05-21T00:12:02.602Z,18.86
2023-05-21T00:13:04.349Z,18.87
2023-05-21T00:14:06.230Z,18.88
2023-05-21T00:15:08.543Z,18.91
2023-05-21T00:16:11.387Z,18.92
2023-05-21T00:17:13.244Z,18.90
2023-05-21T00:18:15.148Z,18.81
2023-05-21T00:19:17.044Z,18.80
2023-05-21T00:20:18.820Z,18.80
2023-05-21T00:21:23.188Z,18.79
2023-05-21T00:22:25.006Z,18.81
2023-05-21T00:23:26.996Z,18.81
2023-05-21T00:24:29.462Z,18.83
2023-05-21T00:25:31.672Z,18.80
2023-05-21T00:26:34.609Z,18.81
2023-05-21T00:27:36.508Z,18.79
2023-05-21T00:28:38.250Z,18.78
2023-05-21T00:29:40.647Z,18.79
2023-05-21T00:30:43.486Z,18.76
2023-05-21T00:31:45.321Z,18.76
2023-05-21T00:32:47.567Z,18.75
2023-05-21T00:33:49.392Z,18.71
2023-05-21T00:34:51.263Z,18.71
2023-05-21T00:35:53.092Z,18.69
2023-05-21T00:36:55.768Z,18.56
2023-05-21T00:37:57.562Z,18.59
2023-05-21T00:38:59.324Z,18.63
2023-05-21T00:40:01.993Z,18.61
2023-05-21T00:41:03.828Z,18.60
2023-05-21T00:42:05.598Z,18.59
2023-05-21T00:43:10.239Z,18.57
2023-05-21T00:44:14.132Z,18.58
2023-05-21T00:45:16.124Z,18.56
2023-05-21T00:46:19.859Z,18.59
2023-05-21T00:47:21.915Z,18.58
2023-05-21T00:48:23.888Z,18.53
2023-05-21T00:49:26.074Z,18.55
2023-05-21T00:50:27.943Z,18.52
2023-05-21T00:51:31.030Z,18.49
2023-05-21T00:52:33.552Z,18.48
2023-05-21T00:53:35.947Z,18.43
2023-05-21T00:54:37.716Z,18.38
2023-05-21T00:55:39.855Z,18.34
2023-05-21T00:56:42.288Z,18.32
2023-05-21T00:57:44.135Z,18.27
2023-05-21T00:58:46.147Z,18.27
2023-05-21T00:59:50.746Z,18.23
2023-05-21T01:00:56.014Z,18.26
2023-05-21T01:02:04.372Z,18.22
2023-05-21T01:03:06.774Z,18.24
2023-05-21T01:04:08.591Z,18.21
2023-05-21T01:05:10.949Z,18.23
2023-05-21T01:06:14.270Z,18.19
2023-05-21T01:07:16.029Z,18.21
2023-05-21T01:08:18.116Z,18.24
2023-05-21T01:09:20.546Z,18.19
2023-05-21T01:10:23.102Z,18.22
2023-05-21T01:11:46.632Z,18.24
2023-05-21T01:12:49.130Z,18.26
2023-05-21T01:13:51.313Z,18.21
2023-05-21T01:14:53.792Z,18.24
2023-05-21T01:15:55.599Z,18.24
2023-05-21T01:16:59.740Z,18.29
2023-05-21T01:18:01.829Z,18.30
2023-05-21T01:19:05.701Z,18.32
2023-05-21T01:20:11.462Z,18.31
2023-05-21T01:21:17.444Z,18.34
2023-05-21T01:22:21.992Z,18.35
2023-05-21T01:23:23.939Z,18.34
2023-05-21T01:24:25.944Z,18.37
2023-05-21T01:25:27.694Z,18.36
2023-05-21T01:26:30.560Z,18.34
2023-05-21T01:27:32.334Z,18.34
2023-05-21T01:28:34.776Z,18.34
2023-05-21T01:29:36.558Z,18.33
2023-05-21T01:30:40.946Z,18.26
2023-05-21T01:31:46.829Z,18.32
2023-05-21T01:32:56.659Z,18.34
2023-05-21T01:34:04.326Z,18.36
2023-05-21T01:35:14.727Z,18.35
2023-05-21T01:36:26.890Z,18.36
2023-05-21T01:37:40.603Z,18.39
2023-05-21T01:38:49.315Z,18.39
2023-05-21T01:39:57.231Z,18.37
2023-05-21T01:41:04.116Z,18.33
2023-05-21T01:42:10.427Z,18.32
2023-05-21T01:43:14.153Z,18.29
2023-05-21T01:44:18.975Z,18.31
2023-05-21T01:45:24.069Z,18.28
2023-05-21T01:46:29.132Z,18.25
2023-05-21T01:47:32.342Z,18.25
2023-05-21T01:48:35.235Z,18.21
2023-05-21T01:49:37.761Z,18.24
2023-05-21T01:50:41.778Z,18.24
2023-05-21T01:51:44.058Z,18.23
2023-05-21T01:52:50.236Z,18.24
2023-05-21T01:53:51.960Z,18.22
2023-05-21T01:54:54.628Z,18.16
2023-05-21T01:55:56.544Z,18.15
2023-05-21T01:56:58.408Z,18.12
2023-05-21T01:58:02.554Z,18.09
2023-05-21T01:59:06.031Z,18.11
2023-05-21T02:00:09.254Z,18.11
2023-05-21T02:01:12.528Z,18.07
2023-05-21T02:02:14.429Z,18.06
2023-05-21T02:03:16.645Z,18.05
2023-05-21T02:04:18.507Z,18.06
2023-05-21T02:05:20.306Z,18.01
2023-05-21T02:06:22.781Z,18.01
2023-05-21T02:07:24.747Z,18.00
2023-05-21T02:08:27.464Z,18.01
2023-05-21T02:09:29.211Z,18.04
2023-05-21T02:10:31.099Z,18.01
2023-05-21T02:11:32.867Z,18.04
2023-05-21T02:12:34.613Z,18.02
2023-05-21T02:13:40.816Z,17.90
2023-05-21T02:14:42.703Z,17.92
2023-05-21T02:15:45.103Z,17.90
2023-05-21T02:16:47.320Z,17.92
2023-05-21T02:17:51.504Z,17.90
2023-05-21T02:18:54.590Z,17.87
2023-05-21T02:19:56.392Z,17.80
2023-05-21T02:20:58.201Z,17.67
2023-05-21T02:21:59.932Z,17.49
2023-05-21T02:23:01.662Z,17.40
2023-05-21T02:24:03.612Z,17.31
2023-05-21T02:25:09.884Z,17.21
2023-05-21T02:26:11.714Z,17.16
2023-05-21T02:27:13.863Z,17.19
2023-05-21T02:28:16.009Z,17.21
2023-05-21T02:29:17.844Z,17.23
2023-05-21T02:30:20.185Z,17.15
2023-05-21T02:31:21.941Z,17.08
2023-05-21T02:32:23.921Z,16.95
2023-05-21T02:33:26.297Z,16.82
2023-05-21T02:34:31.032Z,16.62
2023-05-21T02:35:32.931Z,16.62
2023-05-21T02:36:36.291Z,16.69
2023-05-21T02:37:40.543Z,16.79
2023-05-21T02:38:45.539Z,16.87
2023-05-21T02:39:47.269Z,16.89
2023-05-21T02:40:51.237Z,16.91
2023-05-21T02:41:53.051Z,16.95
2023-05-21T02:42:54.788Z,16.98
2023-05-21T02:43:56.501Z,16.92
2023-05-21T02:44:58.394Z,16.86
2023-05-21T02:46:00.346Z,16.82
2023-05-21T02:47:02.158Z,16.85
2023-05-21T02:48:04.044Z,16.87
2023-05-21T02:49:05.916Z,16.93
2023-05-21T02:50:09.099Z,16.94
2023-05-21T02:51:10.842Z,16.95
2023-05-21T02:52:12.948Z,16.98
2023-05-21T02:53:14.765Z,17.03
2023-05-21T02:54:16.515Z,17.07
2023-05-21T02:55:18.248Z,17.09
2023-05-21T02:56:20.135Z,17.10
2023-05-21T02:57:21.894Z,17.10
2023-05-21T02:58:25.371Z,17.14
2023-05-21T02:59:27.224Z,17.17
2023-05-21T03:00:28.975Z,17.18
2023-05-21T03:01:30.858Z,17.19
2023-05-21T03:02:32.780Z,17.23
2023-05-21T03:03:34.726Z,17.24
2023-05-21T03:04:39.206Z,17.27
2023-05-21T03:05:41.443Z,17.27
2023-05-21T03:06:44.672Z,17.23
2023-05-21T03:07:46.476Z,17.19
2023-05-21T03:08:48.394Z,17.22
2023-05-21T03:09:50.207Z,17.23
2023-05-21T03:10:51.957Z,17.23
2023-05-21T03:11:53.735Z,17.24
2023-05-21T03:12:55.474Z,17.26
2023-05-21T03:13:57.406Z,17.24
2023-05-21T03:14:59.898Z,17.25
2023-05-21T03:16:01.684Z,17.27
2023-05-21T03:17:06.262Z,17.31
2023-05-21T03:18:08.236Z,17.32
2023-05-21T03:19:11.637Z,17.34
2023-05-21T03:20:16.694Z,17.33
2023-05-21T03:21:18.549Z,17.20
2023-05-21T03:22:20.331Z,17.21
2023-05-21T03:23:22.082Z,17.12
2023-05-21T03:24:23.860Z,17.03
2023-05-21T03:25:25.822Z,17.23
2023-05-21T03:26:27.707Z,17.26
2023-05-21T03:27:29.442Z,17.26
2023-05-21T03:28:31.722Z,17.25
2023-05-21T03:29:34.591Z,17.21
2023-05-21T03:30:38.385Z,17.21
2023-05-21T03:31:40.236Z,17.21
2023-05-21T03:32:42.029Z,17.19
2023-05-21T03:33:43.818Z,17.18
2023-05-21T03:34:45.597Z,17.26
2023-05-21T03:35:47.345Z,17.22
2023-05-21T03:36:49.373Z,17.31
2023-05-21T03:37:51.275Z,17.33
2023-05-21T03:38:53.046Z,17.35
2023-05-21T03:39:54.830Z,17.36
2023-05-21T03:40:56.550Z,17.39
2023-05-21T03:41:58.274Z,17.38
2023-05-21T03:43:00.032Z,17.42
2023-05-21T03:44:01.842Z,17.44
2023-05-21T03:45:04.205Z,17.39
2023-05-21T03:46:05.999Z,17.40
2023-05-21T03:47:07.854Z,17.45
2023-05-21T03:48:09.582Z,17.46
2023-05-21T03:49:11.682Z,17.48
2023-05-21T03:50:13.496Z,17.46
2023-05-21T03:51:16.145Z,17.47
2023-05-21T03:52:17.962Z,17.54
2023-05-21T03:53:19.788Z,17.58
2023-05-21T03:54:21.647Z,17.59
2023-05-21T03:55:23.415Z,17.62
2023-05-21T03:56:25.155Z,17.61
2023-05-21T03:57:26.980Z,17.60
2023-05-21T03:58:28.707Z,17.61
2023-05-21T03:59:30.495Z,17.55
2023-05-21T04:00:37.587Z,17.42
2023-05-21T04:01:39.338Z,17.52
2023-05-21T04:02:41.193Z,17.53
2023-05-21T04:03:43.162Z,17.53
2023-05-21T04:04:45.787Z,17.51
2023-05-21T04:05:47.668Z,17.55
2023-05-21T04:06:51.707Z,17.55
2023-05-21T04:07:53.494Z,17.55
2023-05-21T04:08:55.263Z,17.57
2023-05-21T04:09:57.081Z,17.57
2023-05-21T04:10:58.891Z,17.57
2023-05-21T04:12:00.642Z,17.58
2023-05-21T04:13:02.432Z,17.57
2023-05-21T04:14:04.213Z,17.53
2023-05-21T04:15:06.905Z,17.49
2023-05-21T04:16:12.434Z,17.50
2023-05-21T04:17:14.329Z,17.45
2023-05-21T04:18:20.657Z,17.45
2023-05-21T04:19:22.425Z,17.40
2023-05-21T04:20:24.273Z,17.42
2023-05-21T04:21:26.151Z,17.43
2023-05-21T04:22:27.885Z,17.46
2023-05-21T04:23:29.676Z,17.46
2023-05-21T04:24:31.814Z,17.49
2023-05-21T04:25:34.252Z,17.51
2023-05-21T04:26:36.271Z,17.55
2023-05-21T04:27:38.022Z,17.58
2023-05-21T04:28:42.173Z,17.62
2023-05-21T04:29:44.000Z,17.64
2023-05-21T04:30:50.015Z,17.64
2023-05-21T04:31:51.837Z,17.64
2023-05-21T04:32:54.982Z,17.61
2023-05-21T04:33:57.147Z,17.67
2023-05-21T04:35:01.226Z,17.67
2023-05-21T04:36:03.992Z,17.65
2023-05-21T04:37:06.970Z,17.65
2023-05-21T04:38:08.697Z,17.67
2023-05-21T04:39:10.482Z,17.68
2023-05-21T04:40:18.433Z,17.69
2023-05-21T04:41:21.372Z,17.67
2023-05-21T04:42:24.179Z,17.69
2023-05-21T04:43:26.804Z,17.63
2023-05-21T04:44:28.611Z,17.65
2023-05-21T04:45:30.916Z,17.71
2023-05-21T04:46:32.679Z,17.77
2023-05-21T04:47:35.708Z,17.80
2023-05-21T04:48:37.728Z,17.83
2023-05-21T04:49:39.468Z,17.90
2023-05-21T04:50:41.731Z,17.92
2023-05-21T04:51:43.574Z,17.96
2023-05-21T04:52:45.992Z,17.96
2023-05-21T04:53:48.293Z,17.98
2023-05-21T04:54:50.084Z,18.04
2023-05-21T04:55:51.854Z,18.07
2023-05-21T04:56:53.649Z,18.06
2023-05-21T04:57:55.387Z,18.05
2023-05-21T04:58:58.906Z,18.05
2023-05-21T05:00:00.768Z,18.04
2023-05-21T05:01:04.235Z,18.04
2023-05-21T05:02:06.133Z,18.02
2023-05-21T05:03:08.258Z,18.05
2023-05-21T05:04:10.029Z,18.07
2023-05-21T05:05:11.781Z,18.07
2023-05-21T05:06:13.567Z,18.05
2023-05-21T05:07:15.702Z,18.07
2023-05-21T05:08:17.432Z,18.10
2023-05-21T05:09:21.628Z,18.12
2023-05-21T05:10:23.386Z,18.13
2023-05-21T05:11:25.348Z,18.14
2023-05-21T05:12:27.093Z,18.13
2023-05-21T05:13:28.955Z,18.15
2023-05-21T05:14:30.714Z,18.17
2023-05-21T05:15:32.449Z,18.22
2023-05-21T05:16:35.748Z,18.16
2023-05-21T05:17:37.612Z,18.22
2023-05-21T05:18:39.380Z,18.25
2023-05-21T05:19:41.140Z,18.24
2023-05-21T05:20:42.967Z,18.30
2023-05-21T05:21:44.771Z,18.31
2023-05-21T05:22:46.653Z,18.34
2023-05-21T05:23:48.407Z,18.36
2023-05-21T05:24:50.196Z,18.40
2023-05-21T05:25:52.068Z,18.39
2023-05-21T05:26:53.837Z,18.40
2023-05-21T05:27:55.645Z,18.40
2023-05-21T05:28:57.450Z,18.39
2023-05-21T05:29:59.236Z,18.39
2023-05-21T05:31:01.079Z,18.37
2023-05-21T05:32:02.862Z,18.38
2023-05-21T05:33:04.726Z,18.38
2023-05-21T05:34:06.563Z,18.37
2023-05-21T05:35:08.956Z,18.36
2023-05-21T05:36:10.724Z,18.37
2023-05-21T05:37:12.562Z,18.34
2023-05-21T05:38:14.341Z,18.27
2023-05-21T05:39:16.163Z,18.31
2023-05-21T05:40:17.950Z,18.32
2023-05-21T05:41:19.698Z,18.33
2023-05-21T05:42:21.519Z,18.31
2023-05-21T05:43:25.552Z,18.34
2023-05-21T05:44:27.607Z,18.36
2023-05-21T05:45:29.380Z,18.27
2023-05-21T05:46:31.187Z,18.31
2023-05-21T05:47:33.101Z,18.33
2023-05-21T05:48:37.438Z,18.32
2023-05-21T05:49:39.223Z,18.33
2023-05-21T05:50:41.175Z,18.35
2023-05-21T05:51:42.961Z,18.32
2023-05-21T05:52:44.767Z,18.34
2023-05-21T05:53:46.565Z,18.35
2023-05-21T05:54:48.347Z,18.34
2023-05-21T05:55:50.164Z,18.32
2023-05-21T05:56:51.897Z,18.28
2023-05-21T05:57:53.749Z,18.23
2023-05-21T05:58:55.748Z,18.26
2023-05-21T05:59:57.928Z,18.21
2023-05-21T06:00:59.682Z,18.08
2023-05-21T06:02:01.558Z,18.09
2023-05-21T06:03:04.140Z,18.08
2023-05-21T06:04:06.035Z,18.06
2023-05-21T06:05:08.518Z,18.08
2023-05-21T06:06:10.353Z,18.02
2023-05-21T06:07:12.177Z,17.99
2023-05-21T06:08:13.954Z,18.03
2023-05-21T06:09:15.717Z,18.05
2023-05-21T06:10:17.567Z,18.00
2023-05-21T06:11:20.086Z,17.91
2023-05-21T06:12:21.844Z,17.81
2023-05-21T06:13:23.635Z,17.83
2023-05-21T06:14:25.531Z,17.84
2023-05-21T06:15:27.313Z,17.85
2023-05-21T06:16:31.661Z,17.81
2023-05-21T06:17:33.751Z,17.73
2023-05-21T06:18:35.983Z,17.74
2023-05-21T06:19:37.739Z,17.78
2023-05-21T06:20:39.481Z,17.81
2023-05-21T06:21:41.266Z,17.84
2023-05-21T06:22:43.048Z,17.85
2023-05-21T06:23:44.861Z,17.81
2023-05-21T06:24:46.658Z,17.86
2023-05-21T06:25:49.980Z,17.90
2023-05-21T06:26:51.937Z,17.97
2023-05-21T06:27:53.733Z,18.01
2023-05-21T06:28:55.526Z,18.01
2023-05-21T06:29:57.582Z,18.04
2023-05-21T06:30:59.355Z,17.97
2023-05-21T06:32:01.842Z,17.97
2023-05-21T06:33:03.868Z,17.97
2023-05-21T06:34:05.821Z,17.92
2023-05-21T06:35:08.095Z,17.96
2023-05-21T06:36:09.902Z,17.98
2023-05-21T06:37:11.704Z,17.81
2023-05-21T06:38:13.459Z,17.54
2023-05-21T06:39:15.227Z,17.63
2023-05-21T06:40:17.128Z,17.55
2023-05-21T06:41:18.858Z,17.60
2023-05-21T06:42:20.659Z,17.54
2023-05-21T06:43:22.567Z,17.51
2023-05-21T06:44:27.381Z,17.57
2023-05-21T06:45:29.136Z,17.59
2023-05-21T06:46:31.142Z,17.59
2023-05-21T06:47:32.945Z,17.67
2023-05-21T06:48:36.212Z,17.58
2023-05-21T06:49:38.141Z,17.75
2023-05-21T06:50:39.928Z,17.75
2023-05-21T06:51:42.684Z,17.73
2023-05-21T06:52:44.434Z,17.67
2023-05-21T06:53:46.226Z,17.83
2023-05-21T06:54:47.962Z,17.90
2023-05-21T06:55:53.863Z,17.79
2023-05-21T06:56:55.759Z,17.79
2023-05-21T06:57:58.233Z,17.82
2023-05-21T06:58:59.980Z,17.65
2023-05-21T07:00:02.000Z,17.87
2023-05-21T07:01:03.862Z,17.92
2023-05-21T07:02:06.530Z,17.91
2023-05-21T07:03:08.395Z,17.91
2023-05-21T07:04:10.858Z,17.95
2023-05-21T07:05:12.603Z,18.12
2023-05-21T07:06:14.525Z,18.19
2023-05-21T07:07:16.326Z,18.23
2023-05-21T07:08:19.987Z,18.30
2023-05-21T07:09:21.759Z,18.33
2023-05-21T07:10:23.535Z,18.33
2023-05-21T07:11:28.869Z,18.32
2023-05-21T07:12:30.691Z,18.24
2023-05-21T07:13:32.492Z,18.35
2023-05-21T07:14:34.370Z,18.36
2023-05-21T07:15:36.441Z,18.32
2023-05-21T07:16:39.329Z,18.29
2023-05-21T07:17:41.194Z,18.32
2023-05-21T07:18:43.014Z,18.27
2023-05-21T07:19:44.810Z,18.18
2023-05-21T07:20:46.670Z,18.11
2023-05-21T07:21:49.519Z,18.15
2023-05-21T07:22:51.370Z,18.21
2023-05-21T07:23:53.101Z,18.27
2023-05-21T07:24:54.851Z,18.21
2023-05-21T07:25:56.611Z,18.15
2023-05-21T07:26:58.424Z,18.14
2023-05-21T07:28:00.236Z,18.13
2023-05-21T07:29:01.987Z,18.23
2023-05-21T07:30:04.047Z,18.31
2023-05-21T07:31:05.944Z,18.37
2023-05-21T07:32:07.779Z,18.34
2023-05-21T07:33:09.597Z,18.47
2023-05-21T07:34:11.494Z,18.46
2023-05-21T07:35:13.240Z,18.57
2023-05-21T07:36:14.992Z,18.70
2023-05-21T07:37:16.816Z,18.77
2023-05-21T07:38:18.584Z,18.84
2023-05-21T07:39:20.333Z,18.89
2023-05-21T07:40:22.092Z,19.01
2023-05-21T07:41:23.906Z,19.10
2023-05-21T07:42:26.715Z,19.27
2023-05-21T07:43:28.584Z,19.43
2023-05-21T07:44:31.995Z,19.55
2023-05-21T07:45:33.763Z,19.71
2023-05-21T07:46:35.686Z,19.82
2023-05-21T07:47:37.522Z,19.94
2023-05-21T07:48:39.363Z,20.06
2023-05-21T07:49:41.151Z,20.18
2023-05-21T07:50:42.932Z,20.28
2023-05-21T07:51:44.950Z,20.42
2023-05-21T07:52:46.766Z,20.56
2023-05-21T07:53:48.568Z,20.71
2023-05-21T07:54:50.476Z,20.81
2023-05-21T07:55:52.428Z,20.99
2023-05-21T07:56:54.158Z,21.09
2023-05-21T07:57:56.455Z,21.20
2023-05-21T07:58:58.288Z,21.30
2023-05-21T08:00:00.036Z,21.43
2023-05-21T08:01:02.032Z,21.54
2023-05-21T08:02:04.017Z,21.60
2023-05-21T08:03:05.873Z,21.68
2023-05-21T08:04:08.162Z,21.79
2023-05-21T08:05:10.712Z,21.85
2023-05-21T08:06:12.558Z,21.89
2023-05-21T08:07:19.527Z,21.93
2023-05-21T08:08:22.281Z,22.04
2023-05-21T08:09:24.037Z,22.08
2023-05-21T08:10:25.888Z,22.16
2023-05-21T08:11:28.458Z,22.26
2023-05-21T08:12:30.323Z,22.34
2023-05-21T08:13:32.152Z,22.41
2023-05-21T08:14:33.948Z,22.47
2023-05-21T08:15:35.899Z,22.51
2023-05-21T08:16:38.004Z,22.55
2023-05-21T08:17:39.817Z,22.62
2023-05-21T08:18:41.670Z,22.69
2023-05-21T08:19:43.481Z,22.71
2023-05-21T08:20:46.056Z,22.76
2023-05-21T08:21:47.910Z,22.79
2023-05-21T08:22:50.090Z,22.82
2023-05-21T08:23:55.042Z,22.76
2023-05-21T08:24:56.848Z,22.58
2023-05-21T08:25:58.640Z,22.66
2023-05-21T08:27:00.492Z,22.72
2023-05-21T08:28:02.263Z,22.45
2023-05-21T08:29:04.075Z,22.28
2023-05-21T08:30:06.506Z,22.17
2023-05-21T08:31:08.336Z,21.88
2023-05-21T08:32:10.342Z,21.74
2023-05-21T08:33:12.504Z,21.63
2023-05-21T08:34:14.338Z,21.24
2023-05-21T08:35:16.660Z,20.98
2023-05-21T08:36:18.957Z,20.95
2023-05-21T08:37:21.806Z,20.70
2023-05-21T08:38:23.610Z,20.53
2023-05-21T08:39:25.334Z,20.24
2023-05-21T08:40:27.107Z,20.26
2023-05-21T08:41:31.306Z,20.17
2023-05-21T08:42:46.025Z,19.96
2023-05-21T08:43:53.041Z,19.86
2023-05-21T08:45:00.743Z,19.68
2023-05-21T08:46:04.551Z,19.70
2023-05-21T08:47:10.649Z,19.61
2023-05-21T08:48:13.314Z,19.56
2023-05-21T08:49:18.999Z,19.59
2023-05-21T08:50:22.057Z,19.43
2023-05-21T08:51:23.794Z,19.40
2023-05-21T08:52:26.570Z,19.42
2023-05-21T08:53:29.223Z,19.31
2023-05-21T08:54:31.201Z,19.21
2023-05-21T08:55:35.195Z,19.22
2023-05-21T08:56:38.591Z,19.18
2023-05-21T08:57:43.661Z,19.26
2023-05-21T08:58:46.948Z,19.38
2023-05-21T08:59:48.766Z,19.29
2023-05-21T09:00:50.882Z,19.24
2023-05-21T09:01:54.012Z,19.27
2023-05-21T09:02:56.983Z,19.41
2023-05-21T09:04:12.350Z,19.54
2023-05-21T09:05:22.861Z,19.57
2023-05-21T09:06:27.573Z,19.71
2023-05-21T09:07:31.836Z,19.76
2023-05-21T09:08:36.139Z,19.78
2023-05-21T09:09:54.497Z,19.72
2023-05-21T09:10:56.407Z,19.75
2023-05-21T09:11:58.148Z,19.82
2023-05-21T09:13:00.348Z,19.76
2023-05-21T09:14:02.866Z,19.79
2023-05-21T09:15:05.470Z,19.82
2023-05-21T09:16:08.188Z,19.74
2023-05-21T09:17:13.782Z,19.65
2023-05-21T09:18:15.573Z,19.65
2023-05-21T09:19:18.080Z,19.54
2023-05-21T09:20:25.998Z,19.53
2023-05-21T09:21:32.821Z,19.45
2023-05-21T09:22:34.657Z,19.48
2023-05-21T09:23:36.454Z,19.49
2023-05-21T09:24:38.277Z,19.57
2023-05-21T09:25:40.202Z,19.58
2023-05-21T09:26:45.221Z,19.61
2023-05-21T09:27:47.028Z,19.70
2023-05-21T09:28:48.835Z,19.64
2023-05-21T09:29:50.668Z,19.50
2023-05-21T09:30:54.465Z,19.56
2023-05-21T09:31:56.328Z,19.48
2023-05-21T09:33:02.561Z,19.54
2023-05-21T09:34:04.496Z,19.60
2023-05-21T09:35:14.334Z,19.67
2023-05-21T09:36:20.399Z,19.71
2023-05-21T09:37:27.480Z,19.72
2023-05-21T09:38:30.433Z,19.81
2023-05-21T09:39:32.253Z,19.77
2023-05-21T09:40:35.963Z,19.90
2023-05-21T09:41:38.192Z,19.95
2023-05-21T09:42:41.069Z,19.96
2023-05-21T09:43:45.914Z,20.04
2023-05-21T09:44:48.022Z,20.03
2023-05-21T09:45:58.991Z,19.98
2023-05-21T09:47:02.982Z,20.01
2023-05-21T09:48:04.905Z,20.12
2023-05-21T09:49:06.781Z,20.21
2023-05-21T09:50:13.201Z,20.31
2023-05-21T09:51:16.790Z,20.39
2023-05-21T09:52:26.340Z,20.50
2023-05-21T09:53:29.683Z,20.47
2023-05-21T09:54:33.420Z,20.34
2023-05-21T09:55:36.482Z,20.14
2023-05-21T09:56:40.924Z,20.31
2023-05-21T09:57:47.589Z,20.45
2023-05-21T09:59:02.112Z,20.53
2023-05-21T10:00:06.599Z,20.33
2023-05-21T10:01:10.535Z,20.42
2023-05-21T10:02:23.580Z,20.48
2023-05-21T10:03:28.538Z,20.59
2023-05-21T10:04:31.777Z,20.73
2023-05-21T10:05:34.071Z,20.87
2023-05-21T10:06:43.147Z,20.65
2023-05-21T10:07:53.778Z,20.71
2023-05-21T10:08:57.062Z,20.61
2023-05-21T10:10:01.322Z,20.66
2023-05-21T10:11:06.623Z,20.78
2023-05-21T10:12:10.948Z,20.93
2023-05-21T10:13:14.948Z,20.97
2023-05-21T10:14:20.283Z,20.96
2023-05-21T10:15:25.488Z,20.97
2023-05-21T10:16:29.837Z,21.00
2023-05-21T10:17:31.806Z,20.95
2023-05-21T10:18:33.961Z,21.04
2023-05-21T10:19:37.396Z,21.09
2023-05-21T10:20:39.932Z,21.19
2023-05-21T10:21:42.509Z,21.09
2023-05-21T10:22:44.984Z,21.09
2023-05-21T10:23:46.900Z,21.12
2023-05-21T10:24:49.514Z,21.14
2023-05-21T10:25:52.855Z,20.96
2023-05-21T10:26:54.903Z,21.04
2023-05-21T10:27:57.493Z,21.13
2023-05-21T10:29:00.678Z,21.16
2023-05-21T10:30:04.632Z,21.10
2023-05-21T10:31:06.862Z,21.07
2023-05-21T10:32:08.623Z,20.97
2023-05-21T10:33:12.033Z,20.87
2023-05-21T10:34:14.903Z,20.83
2023-05-21T10:35:17.858Z,20.83
2023-05-21T10:36:20.761Z,20.67
2023-05-21T10:37:29.273Z,20.52
2023-05-21T10:38:33.681Z,20.51
2023-05-21T10:39:36.878Z,20.14
2023-05-21T10:40:38.915Z,20.09
2023-05-21T10:41:53.992Z,20.06
2023-05-21T10:43:26.561Z,19.95
2023-05-21T10:44:43.622Z,19.62
2023-05-21T10:46:06.586Z,19.44
2023-05-21T10:47:35.796Z,19.41
2023-05-21T10:48:59.095Z,19.30
2023-05-21T10:50:36.222Z,18.92
2023-05-21T10:51:56.748Z,18.75
2023-05-21T10:52:58.495Z,18.58
2023-05-21T10:54:05.913Z,18.51
2023-05-21T10:55:41.508Z,18.42
2023-05-21T10:56:55.259Z,18.31
2023-05-21T10:58:13.976Z,18.38
2023-05-21T10:59:36.603Z,18.47
2023-05-21T11:00:38.981Z,18.47
2023-05-21T11:01:42.332Z,18.46
2023-05-21T11:02:45.921Z,18.49
2023-05-21T11:03:48.853Z,18.47
2023-05-21T11:04:58.828Z,18.46
2023-05-21T11:06:03.046Z,18.41
2023-05-21T11:07:04.954Z,18.34
2023-05-21T11:08:21.332Z,18.35
2023-05-21T11:09:23.549Z,18.44
2023-05-21T11:10:38.881Z,18.51
2023-05-21T11:11:43.951Z,18.57
2023-05-21T11:13:15.590Z,18.59
2023-05-21T11:14:25.941Z,18.64
2023-05-21T11:15:27.714Z,18.65
2023-05-21T11:16:29.618Z,18.70
2023-05-21T11:17:40.406Z,18.75
2023-05-21T11:18:42.212Z,18.85
2023-05-21T11:19:47.588Z,18.91
2023-05-21T11:20:52.178Z,19.06
2023-05-21T11:21:55.598Z,19.10
2023-05-21T11:22:58.489Z,19.15
2023-05-21T11:24:03.045Z,19.17
2023-05-21T11:25:05.209Z,19.20
2023-05-21T11:26:07.203Z,19.29
2023-05-21T11:27:09.031Z,19.35
2023-05-21T11:28:10.752Z,19.41
2023-05-21T11:29:14.763Z,19.51
2023-05-21T11:30:18.899Z,19.58
2023-05-21T11:31:27.373Z,19.59
2023-05-21T11:32:30.002Z,19.59
2023-05-21T11:33:33.557Z,19.72
2023-05-21T11:34:46.230Z,19.84
2023-05-21T11:35:47.920Z,19.84
2023-05-21T11:36:50.246Z,19.85
2023-05-21T11:37:54.391Z,19.88
2023-05-21T11:39:12.665Z,20.02
2023-05-21T11:40:25.902Z,20.19
2023-05-21T11:41:27.803Z,20.23
2023-05-21T11:42:30.415Z,20.22
2023-05-21T11:43:32.191Z,20.20
2023-05-21T11:44:40.533Z,20.22
2023-05-21T11:45:46.900Z,20.26
2023-05-21T11:46:49.084Z,20.23
2023-05-21T11:47:52.149Z,20.30
2023-05-21T11:48:55.362Z,20.20
2023-05-21T11:49:59.816Z,20.23
2023-05-21T11:51:02.360Z,20.28
2023-05-21T11:52:06.190Z,20.29
2023-05-21T11:53:09.287Z,20.35
2023-05-21T11:54:12.143Z,20.42
2023-05-21T11:55:15.925Z,20.49
2023-05-21T11:56:18.468Z,20.61
2023-05-21T11:57:20.305Z,20.64
2023-05-21T11:58:22.340Z,20.57
2023-05-21T11:59:24.141Z,20.51
2023-05-21T12:00:26.124Z,20.52
2023-05-21T12:01:27.868Z,20.49
2023-05-21T12:02:33.390Z,20.40
2023-05-21T12:03:35.699Z,20.47
2023-05-21T12:04:37.643Z,20.61
2023-05-21T12:05:49.403Z,20.56
2023-05-21T12:06:52.045Z,20.60
2023-05-21T12:07:55.070Z,20.63
2023-05-21T12:08:58.615Z,20.67
2023-05-21T12:10:01.055Z,20.74
2023-05-21T12:11:03.030Z,20.74
2023-05-21T12:12:08.861Z,20.72
2023-05-21T12:13:10.866Z,20.77
2023-05-21T12:14:13.716Z,20.86
2023-05-21T12:15:18.101Z,20.98
2023-05-21T12:16:22.853Z,20.99
2023-05-21T12:17:31.754Z,20.96
2023-05-21T12:18:33.697Z,21.01
2023-05-21T12:19:36.777Z,21.04
2023-05-21T12:20:39.147Z,21.07
2023-05-21T12:21:42.523Z,21.13
2023-05-21T12:22:44.928Z,21.08
2023-05-21T12:23:46.741Z,21.08
2023-05-21T12:24:48.957Z,21.08
2023-05-21T12:25:51.727Z,21.08
2023-05-21T12:26:55.972Z,21.16
2023-05-21T12:27:59.021Z,21.12
2023-05-21T12:29:04.889Z,21.00
2023-05-21T12:30:07.618Z,21.17
2023-05-21T12:31:15.607Z,21.15
2023-05-21T12:32:17.679Z,21.19
2023-05-21T12:33:19.750Z,21.17
2023-05-21T12:34:44.568Z,21.10
2023-05-21T12:35:51.806Z,21.02
2023-05-21T12:36:53.673Z,21.06
2023-05-21T12:37:55.532Z,21.05
2023-05-21T12:38:58.442Z,21.00
2023-05-21T12:40:01.563Z,21.13
2023-05-21T12:41:05.139Z,21.08
2023-05-21T12:42:07.499Z,21.12
2023-05-21T12:43:09.449Z,21.09
2023-05-21T12:44:12.468Z,21.08
2023-05-21T12:45:14.626Z,21.13
2023-05-21T12:46:17.848Z,21.10
2023-05-21T12:47:22.798Z,21.20
2023-05-21T12:48:24.623Z,21.23
2023-05-21T12:49:43.370Z,21.31
2023-05-21T12:50:45.188Z,21.35
2023-05-21T12:51:48.165Z,21.39
2023-05-21T12:52:49.910Z,21.50
2023-05-21T12:53:51.733Z,21.55
2023-05-21T12:54:58.127Z,21.52
2023-05-21T12:56:15.004Z,21.56
2023-05-21T12:57:21.321Z,21.66
2023-05-21T12:58:23.189Z,21.66
2023-05-21T12:59:24.932Z,21.71
2023-05-21T13:00:26.675Z,21.78
2023-05-21T13:01:28.437Z,21.82
2023-05-21T13:02:33.224Z,21.94
2023-05-21T13:03:36.186Z,21.97
2023-05-21T13:04:38.024Z,21.99
2023-05-21T13:05:42.472Z,22.15
2023-05-21T13:06:44.609Z,22.22
2023-05-21T13:07:47.575Z,22.31
2023-05-21T13:08:49.852Z,22.28
2023-05-21T13:09:54.393Z,22.35
2023-05-21T13:10:56.238Z,22.43
2023-05-21T13:11:57.965Z,22.35
2023-05-21T13:13:00.368Z,22.41
2023-05-21T13:14:02.197Z,22.42
2023-05-21T13:15:06.026Z,22.43
2023-05-21T13:16:11.221Z,22.36
2023-05-21T13:17:12.999Z,22.50
2023-05-21T13:18:17.947Z,22.59
2023-05-21T13:19:19.816Z,22.66
2023-05-21T13:20:22.118Z,22.73
2023-05-21T13:21:24.103Z,22.78
2023-05-21T13:22:25.947Z,22.89
2023-05-21T13:23:27.693Z,22.97
2023-05-21T13:24:29.501Z,23.03
2023-05-21T13:25:32.933Z,23.09
2023-05-21T13:26:34.680Z,23.14
2023-05-21T13:27:36.588Z,23.13
2023-05-21T13:28:38.790Z,23.08
2023-05-21T13:29:41.248Z,23.12
2023-05-21T13:30:43.188Z,23.20
2023-05-21T13:31:44.999Z,23.22
2023-05-21T13:32:47.405Z,23.27
2023-05-21T13:33:52.190Z,23.37
2023-05-21T13:34:54.085Z,23.46
2023-05-21T13:35:55.876Z,23.49
2023-05-21T13:36:57.629Z,23.52